Melbourne International Airport
KMLB : rendu visible

Aérodrome :











RETROUVEZ-NOUS SUR...

 
LOGIN :

S'inscrire | Disclaimer

   EN    FR    IT 

 









Légende :    VFR   VFR Marginal   IFR   IFR Intensif   IFR Très Intensif
Visi : 
Plafond : 
>= 8 km
>= 3000ft
5 à 8 km
1000 à 3000 ft
1500m à 5 km
500 à 1000 ft
800 à 1500m
200 à 500 ft
< 800m
< 200 ft
Symboles :   Orages  Brouillard  Fortes neiges  Fortes précipitations  Vent > 20 kt






- Altitude de l'aérodrome : 33 ft
- Code IATA : MLB


KMLB - Melbourne International

DERNIER METAR :
  • 100957Z 27010KT 3SM BR FEW008 OVC014 22/22 A2978 RMK AO2 T02220222

METARs EXPIRÉS :
  • 100923Z AUTO 27010KT 3SM BR FEW008 BKN015 22/22 A2977 RMK AO2 T02220222
  • 100853Z AUTO 26011KT 4SM BR CLR 22/22 A2977 RMK AO2 SLP079 T02220222 55006
  • 100819Z AUTO 25009KT 4SM BR FEW006 22/22 A2976 RMK AO2 T02220217
  • 100753Z AUTO 24009KT 4SM BR CLR 22/22 A2976 RMK AO2 SLP077 T02220217

TAF KMLB
Valide du 10 à 06h jusqu'au 11 à 06h UTC


100520Z 1006/1106 25011KT P6SM FEW030 SCT250
FM100900 25010KT P6SM SCT008 BKN012
FM101500 32013KT P6SM FEW015 BKN025
FM101700 36013G23KT P6SM VCSH SCT030 BKN050
FM102300 36010KT P6SM SCT040 SCT100



MET'MAP, la Météo Aéronautique d'un coup d'oeil ! - Copyright ORBIFLY Décembre 2007 - Disclaimer

ORBIFLY MET'MAP TEAM :

Programmation & Développement : Alexandra Zaïnal
Sur une idée originale de : Baudouin d'Aumeries
Assistance à la programmation : Marc-Olivier Méhu
Soutien technique & logistique : Manuel Goepfert

Contact : metmap@orbifly.com




SOURCES & CREDITS :

   NOAA       Earth
Advisory